MyFlightRoute - Storm Chaser


To sort multiple columns, hold SHIFT key while clicking column header

ICAOVisibilityWindSpeedGustCeilingWeatherTempDew PointSpreadFlight CategoryMETAR
KABQ10.008 13.303.3010VFRKABQ 121552Z 06008KT 10SM FEW030 FEW120 13/03 A3031 RMK AO2 SLP217 MTN TOPS OBSC E AND SE T01330033
KAMA10.007 310012.204.407.8VFRKAMA 121629Z 06007KT 10SM SCT026 BKN031 OVC049 12/04 A3037 RMK AO2 T01220044
KAPA10.003 7.80-1.108.9VFRKAPA 121553Z 15003KT 10SM FEW080 FEW140 08/M01 A3027 RMK AO2 SLP250 T00781011
KASE10.000 7.80-5.6013.4VFRKASE 121553Z 00000KT 10SM CLR 08/M06 A3030 RMK AO2 SLP208 T00781056
KBFI10.004 1100014.409.405VFRKBFI 121553Z 06004KT 10SM SCT060 OVC110 14/09 A3015 RMK AO2 SLP208 T01440094
KBFL8.004 25.602.8022.8VFRKBFL 121554Z 17004KT 8SM CLR 26/03 A2995 RMK AO2 SLP136 T02560028
KBIL10.006 8.903.305.6VFRKBIL 121553Z 21006KT 10SM FEW060 SCT100 09/03 A3022 RMK AO2 SLP237 VIRGA NE-E S T00890033
KBOI10.0011 17.20-2.2019.4VFRKBOI 121553Z 14011KT 10SM CLR 17/M02 A3015 RMK AO2 SLP194 T01721022
KBUR7.007 100015.6011.703.9MVFRKBUR 121553Z 12007KT 7SM OVC010 16/12 A3001 RMK AO2 SLP154 T01560117
KBZN10.000 10.000.0010VFRKBZN 121556Z 00000KT 10SM CLR 10/00 A3023 RMK AO2 SLP236 T01000000
KCMA9.004 120017.2012.205MVFRKCMA 121555Z 09004KT 9SM OVC012 17/12 A3002 RMK AO2 SLP173 T01720122
KCNO3.000 1100HAZE 17.8013.304.5MVFRKCNO 121553Z 00000KT 3SM HZ OVC011 18/13 A3003 RMK AO2 SLP165 T01780133
KCOS10.007 11005.002.202.8MVFRKCOS 121613Z 18007KT 10SM SCT008 OVC011 05/02 A3033 RMK AO2 T00500022
KCPR10.007 11.10-0.6011.7VFRKCPR 121553Z 30007KT 10SM CLR 11/M01 A3022 RMK AO2 SLP220 T01111006
KCRQ9.000 130017.2012.804.4MVFRKCRQ 121553Z 00000KT 9SM OVC013 17/13 A3000 RMK AO2 SLP157 T01720128
KDEN10.003 8.302.206.1VFRKDEN 121553Z 28003KT 10SM SCT015 SCT100 08/02 A3028 RMK AO2 SLP236 T00830022
KEGE10.000 6.70-4.4011.1VFRKEGE 121556Z 00000KT 10SM CLR 07/M04 A3033 RMK AO2 SLP272 T00671044 PNO $
KELP10.0012 380018.306.7011.6VFRKELP 121551Z 09012KT 10SM BKN038 18/07 A3025 RMK AO2 SLP182 T01830067
KEMT7.000 130017.0013.004MVFRKEMT 121545Z 00000KT 7SM OVC013 17/13 A3002
KEUG10.000 13.908.305.6VFRKEUG 121554Z 00000KT 10SM FEW250 14/08 A3011 RMK AO2 SLP196 T01390083
KFAT10.005 25.603.9021.7VFRKFAT 121553Z 12005KT 10SM CLR 26/04 A2995 RMK AO2 SLP138 T02560039
KFLG10.008 16.70-12.8029.5VFRKFLG 121557Z 06008KT 10SM CLR 17/M13 A3029 RMK AO2 SLP176 T01671128
KFMN10.004 16.10-2.8018.9VFRKFMN 121553Z 13004KT 10SM CLR 16/M03 A3023 RMK AO2 SLP202 T01611028
KFUL7.000 170018.9014.404.5MVFRKFUL 121553Z 00000KT 7SM OVC017 19/14 A3000 RMK AO2 SLP159 T01890144
KGCN10.005 17.20-13.3030.5VFRKGCN 121554Z 11005KT 10SM CLR 17/M13 A3029 RMK AO2 SLP189 T01721133
KGEG10.008 2500013.303.909.4VFRKGEG 121553Z 06008KT 10SM BKN250 13/04 A3014 RMK AO2 SLP200 T01330039
KGJT10.009 13.90-3.3017.2VFRKGJT 121553Z 14009KT 10SM CLR 14/M03 A3024 RMK AO2 SLP202 T01391033
KGPI10.009 10.003.306.7VFRKGPI 121555Z 04009KT 10SM CLR 10/03 A3023 RMK AO2 SLP243 T01000033
KHHR10.005 150016.1012.203.9MVFRKHHR 121553Z 25005KT 10SM OVC015 16/12 A3002 RMK AO2 SLP166 T01610122
KHLN10.000 9.402.207.2VFRKHLN 121553Z 00000KT 10SM CLR 09/02 A3022 RMK AO2 SLP250 T00940022
KHND10.005 24.40-7.8032.2VFRKHND 121556Z 36005KT 10SM CLR 24/M08 A3009 RMK AO2 SLP183 T02441078
KIFP20.0010 29.00-9.0038VFRKIFP 121550Z 36010KT 20SM SKC 29/M09 A2996
KINS10.000 21.10-13.0034.1VFRKINS 121558Z AUTO 00000KT 10SM CLR 21/M13 A3009 RMK AO2 SLP150 T02111130 $
KJAC10.006 6.100.605.5VFRKJAC 121556Z 17006KT 10SM CLR 06/01 A3028 RMK AO2 SLP267 T00610006
KLAS10.000 25.00-7.2032.2VFRKLAS 121556Z 00000KT 10SM CLR 25/M07 A3007 RMK AO2 SLP159 T02501072 $
KLAX8.003 150016.1012.203.9MVFRKLAX 121553Z 21003KT 8SM OVC015 16/12 A3002 RMK AO2 SLP165 T01610122
KLGB6.000 1600HAZE 17.2013.303.9MVFRKLGB 121553Z 00000KT 6SM HZ OVC016 17/13 A3002 RMK AO2 SLP163 T01720133
KLSV10.001417 26.40-12.2038.6VFRKLSV 121558Z AUTO 05014G17KT 10SM CLR 26/M12 A3004 RMK AO2 SLP153 T02641122 $
KMFR10.004 13.903.9010VFRKMFR 121553Z 36004KT 10SM CLR 14/04 A3008 RMK AO2 SLP180 T01390039
KMHV10.000 25.00-1.0026VFRKMHV 121600Z AUTO 00000KT 10SM CLR 25/M01 A3005 RMK A01
KMRY5.000 700HAZE 12.208.903.3IFRKMRY 121554Z 00000KT 5SM HZ OVC007 12/09 A3004 RMK AO2 SLP184 T01220089
KMSO10.003 10.00-1.1011.1VFRKMSO 121553Z 17003KT 10SM CLR 10/M01 A3022 RMK AO2 SLP238 T01001011
KMYF8.003 100016.1012.203.9MVFRKMYF 121553Z 21003KT 8SM OVC010 16/12 A3002 RMK AO2 SLP163 T01610122
KNYL7.003 26.102.2023.9VFRKNYL 121557Z 15003KT 7SM CLR 26/02 A2994 RMK AO2 SLP136 T02610022 $
KOAK6.007 600MIST 12.2010.002.2IFRKOAK 121553Z 31007KT 6SM BR OVC006 12/10 A3002 RMK AO2 SLP164 T01220100
KOLM10.007 1200014.408.306.1VFRKOLM 121554Z 03007KT 10SM BKN120 14/08 A3014 RMK AO2 SLP208 T01440083
KONT4.003 HAZE 18.3012.805.5MVFRKONT 121632Z VRB03KT 4SM HZ SCT014 18/13 A3001 RMK AO2 T01830128
KOTH2.5010 500MIST 11.009.002IFRKOTH 121625Z 35010KT 2 1/2SM BR OVC005 11/09 A3015 RMK AO2
KOXR9.000 120015.6012.203.4MVFRKOXR 121551Z 00000KT 9SM OVC012 16/12 A3002 RMK AO2 SLP164 T01560122
KPAE10.004 11.709.402.3VFRKPAE 121553Z 36004KT 10SM SCT006 12/09 A3015 RMK AO2 SLP210 T01170094
KPDX10.004 15.008.306.7VFRKPDX 121553Z VRB04KT 10SM FEW180 SCT250 15/08 A3012 RMK AO2 SLP197 T01500083
KPHX10.004 26.70-2.8029.5VFRKPHX 121551Z 13004KT 10SM CLR 27/M03 A2997 RMK AO2 SLP131 T02671028
KPOC2.000 700MIST 15.0013.002IFRKPOC 121547Z 00000KT 2SM BR OVC007 15/13 A3003
KPRC10.005 19.40-10.0029.4VFRKPRC 121553Z 35005KT 10SM CLR 19/M10 A3021 RMK AO2 SLP161 T01941100
KPSC10.000 15.603.9011.7VFRKPSC 121553Z 00000KT 10SM CLR 16/04 A3010 RMK AO2 SLP191 T01560039
KPSP10.003 28.908.9020VFRKPSP 121553Z 11003KT 10SM CLR 29/09 A2995 RMK AO2 SLP137 T02890089
KRAL3.000 800HAZE 16.1012.803.3IFRKRAL 121553Z 00000KT 3SM HZ OVC008 16/13 A3002 RMK AO2 SLP153 T01610128
KRDD10.007 23.906.1017.8VFRKRDD 121553Z 36007KT 10SM CLR 24/06 A2994 RMK AO2 SLP131 T02390061
KRIV4.000 HAZE 16.5012.803.7MVFRKRIV 121558Z 00000KT 4SM HZ SCT007 17/13 A3001 RMK AO2A SLP156 T01650128
KRNM10.006 17.2012.804.4VFRKRNM 121553Z 29006KT 10SM CLR 17/13 A3001 RMK AO2 SLP154 T01720128
KRNO10.000 15.60-5.0020.6VFRKRNO 121555Z 00000KT 10SM CLR 16/M05 A3015 RMK AO2 SLP171 T01561050
KSAC10.000 33.30-1.7035VFRKSAC 112153Z 00000KT 10SM CLR 33/M02 A2985 RMK AO2 SLP106 T03331017
KSAN10.000 150018.3012.805.5MVFRKSAN 121623Z 00000KT 10SM OVC015 18/13 A3003 RMK AO2 T01830128
KSBA10.003 90014.4011.702.7IFRKSBA 121553Z 20003KT 10SM OVC009 14/12 A3002 RMK AO2 SLP166 T01440117 $
KSBD3.000 1200HAZE 18.0012.006MVFRKSBD 121552Z 00000KT 3SM HZ BKN012 18/12 A3002
KSBP9.000 50011.7010.601.1IFRKSBP 121556Z 00000KT 9SM OVC005 12/11 A3003 RMK AO2 SLP170 T01170106
KSDM8.000 110017.2011.106.1MVFRKSDM 121553Z 00000KT 8SM OVC011 17/11 A3002 RMK AO2 SLP161 T01720111
KSEA10.007 1200014.408.905.5VFRKSEA 121553Z 05007KT 10SM SCT095 BKN120 OVC160 14/09 A3014 RMK AO2 SLP213 T01440089
KSEE7.000 130016.0012.004MVFRKSEE 121605Z 00000KT 7SM OVC013 16/12 A3003
KSFO5.000 HAZE 13.9010.003.9MVFRKSFO 121556Z 00000KT 5SM HZ SCT006 14/10 A3001 RMK AO2 SLP160 T01390100
KSJC8.000 15.6011.104.5VFRKSJC 121553Z 00000KT 8SM FEW008 SCT013 16/11 A3000 RMK AO2 SLP157 T01560111
KSLC10.005 15.60-3.9019.5VFRKSLC 121554Z 15005KT 10SM FEW200 16/M04 A3021 RMK AO2 SLP202 T01561039
KSMF10.004 20.008.3011.7VFRKSMF 121553Z 12004KT 10SM CLR 20/08 A2995 RMK AO2 SLP140 T02000083
KSMO10.000 130016.1012.203.9MVFRKSMO 121551Z 00000KT 10SM OVC013 16/12 A3002 RMK AO2 SLP166 T01610122
KSMX7.000 60012.8011.101.7IFRKSMX 121551Z 00000KT 7SM OVC006 13/11 A3003 RMK AO2 SLP173 T01280111 $
KSNA7.000 170018.3012.805.5MVFRKSNA 121553Z 00000KT 7SM OVC017 18/13 A3001 RMK AO2 SLP160 T01830128
KSUN10.005 11.00-3.0014VFRKSUN 121552Z 30005KT 10SM SKC 11/M03 A3024
KTOA7.005 17.0014.003KTOA 121547Z 26005KT 7SM OCV013 17/14 A3002
KTPH10.000 15.00-16.7031.7VFRKTPH 121556Z AUTO 00000KT 10SM CLR 15/M17 A3020 RMK AO2 SLP178 T01501167
KTUS10.000 25.60-6.7032.3VFRKTUS 121553Z 00000KT 10SM CLR 26/M07 A3007 RMK AO2 SLP139 T02561067
KVCV10.000 0.000.000VFRKVCV 121545Z 00000KT 10SM SKC A3006
KVGT10.005 24.40-8.9033.3VFRKVGT 121553Z AUTO 14005KT 10SM CLR 24/M09 A3002 RMK AO2 SLP160 T02441089
KVNY6.003 1200HAZE 17.8012.205.6MVFRKVNY 121551Z VRB03KT 6SM HZ BKN012 18/12 A3001 RMK AO2 SLP155 T01780122
KWHP4.004 2000MIST 15.0012.003MVFRKWHP 121555Z 10004KT 4SM BR BKN020 15/12 A3005
KWJF10.000 25.600.0025.6VFRKWJF 121556Z 00000KT 10SM CLR 26/00 A3003 RMK AO2 SLP151 T02560000
KYKM10.004 17.203.3013.9VFRKYKM 121553Z 31004KT 10SM CLR 17/03 A3009 RMK AO2 SLP185 T01720033